createdAt,value
2019-01-05T00:00:12.442Z,-1.9
2019-01-05T00:05:10.656Z,-2.4
2019-01-05T00:10:08.980Z,-1.9
2019-01-05T00:15:07.247Z,-2
2019-01-05T00:20:05.438Z,-2.4
2019-01-05T00:25:03.854Z,-2
2019-01-05T00:30:02.180Z,-2.5
2019-01-05T00:35:00.485Z,-2.5
2019-01-05T00:39:58.960Z,-2.5
2019-01-05T00:44:57.355Z,-2.5
2019-01-05T00:49:55.719Z,-2.5
2019-01-05T00:54:54.233Z,-2
2019-01-05T00:59:52.479Z,-2.5
2019-01-05T01:04:50.875Z,-2.5
2019-01-05T01:09:49.132Z,-2.6
2019-01-05T01:14:47.587Z,-2.1
2019-01-05T01:19:45.624Z,-2.6
2019-01-05T01:24:43.994Z,-2.6
2019-01-05T01:29:42.106Z,-2.6
2019-01-05T01:34:40.432Z,-2.7
2019-01-05T01:39:38.749Z,-2.6
2019-01-05T01:44:37.149Z,-2.7
2019-01-05T01:49:35.335Z,-2.7
2019-01-05T01:54:33.755Z,-2.9
2019-01-05T01:59:31.902Z,-2.7
2019-01-05T02:04:29.911Z,-2.7
2019-01-05T02:09:28.295Z,-2.7
2019-01-05T02:14:26.406Z,-2.7
2019-01-05T02:19:24.677Z,-2.7
2019-01-05T02:24:22.619Z,-2.3
2019-01-05T02:29:21.050Z,-2.5
2019-01-05T02:34:19.403Z,-2.8
2019-01-05T02:39:17.784Z,-2.3
2019-01-05T02:44:16.198Z,-2.8
2019-01-05T02:49:14.666Z,-2.3
2019-01-05T02:54:12.745Z,-2.8
2019-01-05T02:59:11.258Z,-2.8
2019-01-05T03:04:09.775Z,-2.6
2019-01-05T03:09:08.170Z,-2.6
2019-01-05T03:14:06.398Z,-2.9
2019-01-05T03:19:04.702Z,-2.9
2019-01-05T03:24:02.946Z,-2.8
2019-01-05T03:29:01.224Z,-2.9
2019-01-05T03:33:59.581Z,-2.9
2019-01-05T03:38:57.825Z,-2.9
2019-01-05T03:43:56.302Z,-3
2019-01-05T03:48:54.715Z,-3
2019-01-05T03:53:53.167Z,-3
2019-01-05T03:58:51.478Z,-3
2019-01-05T04:03:49.820Z,-3
2019-01-05T04:08:48.362Z,-3
2019-01-05T04:13:46.463Z,-3
2019-01-05T04:18:44.834Z,-3
2019-01-05T04:23:43.202Z,-2.5
2019-01-05T04:28:41.104Z,-3
2019-01-05T04:33:39.536Z,-3
2019-01-05T04:38:37.858Z,-2.6
2019-01-05T04:43:35.869Z,-3.2
2019-01-05T04:48:34.285Z,-3.1
2019-01-05T04:53:32.715Z,-3.1
2019-01-05T04:58:31.027Z,-3.1
2019-01-05T05:03:29.399Z,-3.1
2019-01-05T05:08:27.742Z,-3.1
2019-01-05T05:13:26.168Z,-3.1
2019-01-05T05:18:24.591Z,-3.1
2019-01-05T05:23:23.174Z,-3.1
2019-01-05T05:28:21.606Z,-3.1
2019-01-05T05:33:19.972Z,-3.2
2019-01-05T05:38:18.217Z,-3.2
2019-01-05T05:43:16.373Z,-2.7
2019-01-05T05:48:14.855Z,-3.2
2019-01-05T05:53:13.742Z,-3.4
2019-01-05T05:58:12.576Z,-3.2
2019-01-05T06:03:10.509Z,-3.2
2019-01-05T06:08:08.773Z,-3.4
2019-01-05T06:13:07.078Z,-3.2
2019-01-05T06:18:05.475Z,-3.2
2019-01-05T06:23:03.803Z,-2.8
2019-01-05T06:28:02.315Z,-2.8
2019-01-05T06:33:00.380Z,-3.3
2019-01-05T06:37:58.857Z,-3.3
2019-01-05T06:42:57.174Z,-3.3
2019-01-05T06:47:55.343Z,-3.3
2019-01-05T06:52:53.633Z,-2.9
2019-01-05T06:57:52.197Z,-2.9
2019-01-05T07:02:50.669Z,-3.3
2019-01-05T07:07:49.112Z,-3.4
2019-01-05T07:12:47.508Z,-3.4
2019-01-05T07:17:45.820Z,-3.4
2019-01-05T07:22:44.057Z,-3.4
2019-01-05T07:27:42.307Z,-3.4
2019-01-05T07:32:40.158Z,-3.4
2019-01-05T07:37:38.490Z,-3.4
2019-01-05T07:42:36.857Z,-3.5
2019-01-05T07:47:35.199Z,-3.6
2019-01-05T07:52:33.629Z,-3.5
2019-01-05T07:57:32.068Z,-3.5
2019-01-05T08:02:29.976Z,-3.5
2019-01-05T08:07:28.526Z,-3
2019-01-05T08:12:27.109Z,-3.5
2019-01-05T08:17:25.687Z,-3.5
2019-01-05T08:22:24.224Z,-3.5
2019-01-05T08:27:22.676Z,-3.5
2019-01-05T08:32:21.044Z,-3
2019-01-05T08:37:19.549Z,-3.5
2019-01-05T08:42:18.074Z,-3.5
2019-01-05T08:47:16.422Z,-3
2019-01-05T08:52:14.703Z,-3.5
2019-01-05T08:57:13.263Z,-3
2019-01-05T09:02:11.648Z,-3
2019-01-05T09:07:10.291Z,-3
2019-01-05T09:12:08.732Z,-3.5
2019-01-05T09:17:06.941Z,-3.5
2019-01-05T09:22:05.303Z,-3.5
2019-01-05T09:27:03.562Z,-3.5
2019-01-05T09:32:02.010Z,-3.5
2019-01-05T09:37:00.285Z,-3.5
2019-01-05T09:41:58.604Z,-3.5
2019-01-05T09:46:56.812Z,-3.5
2019-01-05T09:51:54.935Z,-3.5
2019-01-05T09:56:53.369Z,-3.5
2019-01-05T10:01:51.824Z,-3.5
2019-01-05T10:06:50.488Z,-3.2
2019-01-05T10:11:48.781Z,-3.4
2019-01-05T10:16:47.149Z,-3.4
2019-01-05T10:21:45.564Z,-3.4
2019-01-05T10:26:43.521Z,-3.2
2019-01-05T10:31:42.027Z,-2.9
2019-01-05T10:36:40.511Z,-3.3
2019-01-05T10:41:38.075Z,-2.9
2019-01-05T10:46:36.610Z,-3.4
2019-01-05T10:51:34.936Z,-3.4
2019-01-05T10:56:33.684Z,-3.1
2019-01-05T11:01:31.932Z,-3.3
2019-01-05T11:06:30.293Z,-2.8
2019-01-05T11:11:28.814Z,-3.3
2019-01-05T11:16:27.197Z,-3.3
2019-01-05T11:21:25.803Z,-3.3
2019-01-05T11:26:24.366Z,-3.3
2019-01-05T11:31:22.862Z,-3.2
2019-01-05T11:36:21.425Z,-2.8
2019-01-05T11:41:19.703Z,-2.7
2019-01-05T11:46:18.158Z,-3.2
2019-01-05T11:51:16.695Z,-3.2
2019-01-05T11:56:15.227Z,-3.2
2019-01-05T12:01:13.836Z,-3.2
2019-01-05T12:06:12.428Z,-3.1
2019-01-05T12:11:10.951Z,-3.2
2019-01-05T12:16:09.584Z,-2.6
2019-01-05T12:21:08.120Z,-3.1
2019-01-05T12:26:06.590Z,-2.6
2019-01-05T12:31:04.711Z,-3.1
2019-01-05T12:36:03.166Z,-2.5
2019-01-05T12:41:01.531Z,-3
2019-01-05T12:45:59.990Z,-2.5
2019-01-05T12:50:58.494Z,-2.5
2019-01-05T12:55:56.795Z,-2.4
2019-01-05T13:00:55.181Z,-2.9
2019-01-05T13:05:53.773Z,-2.4
2019-01-05T13:10:52.060Z,-2.9
2019-01-05T13:15:50.542Z,-2.3
2019-01-05T13:20:48.928Z,-2.3
2019-01-05T13:25:47.221Z,-2.3
2019-01-05T13:30:45.296Z,-2.2
2019-01-05T13:35:44.259Z,-2.7
2019-01-05T13:40:42.595Z,-2.2
2019-01-05T13:45:41.253Z,-2.2
2019-01-05T13:50:39.750Z,-2.7
2019-01-05T13:55:37.994Z,-2.6
2019-01-05T14:00:36.399Z,-2.6
2019-01-05T14:05:34.934Z,-2.6
2019-01-05T14:10:33.310Z,-2.5
2019-01-05T14:15:31.617Z,-2.4
2019-01-05T14:20:29.925Z,-2.5
2019-01-05T14:25:28.409Z,-2.5
2019-01-05T14:30:26.831Z,-2.4
2019-01-05T14:35:24.849Z,-2.4
2019-01-05T14:40:23.177Z,-2.4
2019-01-05T14:45:21.295Z,-2.4
2019-01-05T14:50:19.659Z,-1.8
2019-01-05T14:55:18.087Z,-2.3
2019-01-05T15:00:16.558Z,-2.3
2019-01-05T15:05:15.143Z,-2
2019-01-05T15:10:13.678Z,-2.4
2019-01-05T15:15:11.994Z,-2.3
2019-01-05T15:20:10.225Z,-2.2
2019-01-05T15:25:08.670Z,-2.2
2019-01-05T15:30:06.977Z,-2.2
2019-01-05T15:35:05.401Z,-2.2
2019-01-05T15:40:03.194Z,-2.2
2019-01-05T15:45:01.029Z,-2.2
2019-01-05T15:49:59.359Z,-2.2
2019-01-05T15:54:57.896Z,-2.2
2019-01-05T15:59:56.271Z,-2.2
2019-01-05T16:04:54.673Z,-2.2
2019-01-05T16:09:53.013Z,-2.2
2019-01-05T16:14:51.472Z,-2.2
2019-01-05T16:19:49.996Z,-2.3
2019-01-05T16:24:47.887Z,-1.8
2019-01-05T16:29:46.328Z,-2.3
2019-01-05T16:34:44.716Z,-2.3
2019-01-05T16:39:42.349Z,-2.3
2019-01-05T16:44:40.956Z,-1.8
2019-01-05T16:49:39.478Z,-1.9
2019-01-05T16:54:38.039Z,-2.4
2019-01-05T16:59:36.278Z,-2.4
2019-01-05T17:04:34.443Z,-2.4
2019-01-05T17:09:32.881Z,-2.4
2019-01-05T17:14:31.435Z,-1.9
2019-01-05T17:19:36.250Z,-2.5
2019-01-05T17:24:34.250Z,-2.4
2019-01-05T17:29:32.750Z,-2.2
2019-01-05T17:34:31.079Z,-2.5
2019-01-05T17:39:29.427Z,-2.5
2019-01-05T17:44:27.754Z,-2.5
2019-01-05T17:49:26.172Z,-2.6
2019-01-05T17:54:24.795Z,-2.6
2019-01-05T17:59:22.899Z,-2.1
2019-01-05T18:04:21.364Z,-2.6
2019-01-05T18:09:26.605Z,-2.2
2019-01-05T18:14:24.083Z,-2.7
2019-01-05T18:19:22.353Z,-2.7
2019-01-05T18:24:20.800Z,-2.8
2019-01-05T18:29:19.183Z,-2.3
2019-01-05T18:34:17.789Z,-2.3
2019-01-05T18:39:16.116Z,-2.8
2019-01-05T18:44:14.597Z,-2.8
2019-01-05T18:49:13.152Z,-2.4
2019-01-05T18:54:11.555Z,-2.9
2019-01-05T18:59:10.188Z,-2.9
2019-01-05T19:04:08.566Z,-2.9
2019-01-05T19:09:06.366Z,-3
2019-01-05T19:14:04.725Z,-3
2019-01-05T19:19:03.279Z,-3
2019-01-05T19:24:01.591Z,-2.6
2019-01-05T19:28:59.962Z,-3.1
2019-01-05T19:33:58.373Z,-2.6
2019-01-05T19:38:56.843Z,-3.2
2019-01-05T19:43:55.482Z,-2.7
2019-01-05T19:48:54.003Z,-2.7
2019-01-05T19:53:51.935Z,-3.3
2019-01-05T19:58:50.347Z,-3.2
2019-01-05T20:03:48.928Z,-3.3
2019-01-05T20:08:47.228Z,-3.4
2019-01-05T20:13:45.507Z,-3.3
2019-01-05T20:18:44.042Z,-3.1
2019-01-05T20:23:42.274Z,-3.4
2019-01-05T20:28:40.685Z,-3.4
2019-01-05T20:33:39.133Z,-3.4
2019-01-05T20:38:36.971Z,-3.5
2019-01-05T20:43:35.255Z,-3.5
2019-01-05T20:48:33.654Z,-3.6
2019-01-05T20:53:31.956Z,-3.6
2019-01-05T20:58:30.302Z,-3.6
2019-01-05T21:03:28.700Z,-3.1
2019-01-05T21:08:26.911Z,-3.6
2019-01-05T21:13:25.248Z,-3.7
2019-01-05T21:18:23.736Z,-3.5
2019-01-05T21:23:22.080Z,-3.2
2019-01-05T21:28:20.510Z,-3.5
2019-01-05T21:33:25.654Z,-3.8
2019-01-05T21:38:23.010Z,-3.8
2019-01-05T21:43:20.943Z,-3.3
2019-01-05T21:48:19.135Z,-3.9
2019-01-05T21:53:17.481Z,-3.4
2019-01-05T21:58:15.825Z,-3.9
2019-01-05T22:03:14.219Z,-4
2019-01-05T22:08:12.679Z,-4
2019-01-05T22:13:10.992Z,-3.5
2019-01-05T22:18:08.909Z,-3.5
2019-01-05T22:23:07.088Z,-4.1
2019-01-05T22:28:05.435Z,-4.1
2019-01-05T22:33:03.619Z,-3.6
2019-01-05T22:38:01.532Z,-3.9
2019-01-05T22:43:00.014Z,-3.6
2019-01-05T22:47:58.506Z,-4.1
2019-01-05T22:52:56.947Z,-3.9
2019-01-05T22:57:55.279Z,-3.7
2019-01-05T23:02:53.655Z,-3.7
2019-01-05T23:07:51.905Z,-4.2
2019-01-05T23:12:50.121Z,-3.7
2019-01-05T23:17:48.171Z,-4.3
2019-01-05T23:22:46.618Z,-3.8
2019-01-05T23:27:44.818Z,-3.8
2019-01-05T23:32:43.376Z,-4.3
2019-01-05T23:37:41.604Z,-4.3
2019-01-05T23:42:39.885Z,-4.4
2019-01-05T23:47:38.478Z,-4.3
2019-01-05T23:52:36.747Z,-4.3
2019-01-05T23:57:34.894Z,-4.4
